createdAt,value
2018-12-04T12:56:14.159Z,20.99
2018-12-04T12:59:36.028Z,20.99
2018-12-04T13:02:57.977Z,20.99
2018-12-04T13:06:19.773Z,20.95
2018-12-04T13:09:41.640Z,20.51
2018-12-04T13:13:03.521Z,20.18
2018-12-04T13:16:25.433Z,20.2
2018-12-04T13:19:47.322Z,20.37
2018-12-04T13:23:09.284Z,20.54
2018-12-04T13:26:31.179Z,20.68
2018-12-04T13:29:53.077Z,20.75
2018-12-04T13:33:14.905Z,20.84
2018-12-04T13:36:36.699Z,20.89
2018-12-04T13:39:58.542Z,20.89
2018-12-04T13:43:20.476Z,20.86
2018-12-04T13:46:43.947Z,20.86
2018-12-04T13:50:04.205Z,20.91
2018-12-04T13:53:26.013Z,20.96
2018-12-04T13:56:47.872Z,21
2018-12-04T14:00:09.852Z,21.02
2018-12-04T14:03:31.679Z,21.05
2018-12-04T14:06:53.555Z,21.08
2018-12-04T14:10:15.336Z,21.1
2018-12-04T14:13:37.232Z,21.1
2018-12-04T14:16:59.120Z,21.12
2018-12-04T14:20:20.833Z,21.11
2018-12-04T14:23:42.743Z,21.13
2018-12-04T14:27:04.521Z,21.14
2018-12-04T14:30:26.618Z,21.15
2018-12-04T14:53:05.578Z,22.31
2018-12-04T14:56:27.460Z,22.15
2018-12-04T14:59:49.340Z,22.11
2018-12-04T15:03:11.416Z,22.08
2018-12-04T15:06:35.750Z,22.08
2018-12-04T15:09:55.317Z,22.11
2018-12-04T15:13:17.199Z,22.08
2018-12-04T15:16:39.174Z,22.09
2018-12-04T15:20:01.176Z,22.2
2018-12-04T15:23:23.135Z,22.19
2018-12-04T15:26:45.086Z,22.18
2018-12-04T15:30:07.042Z,22.19
2018-12-04T15:33:29.029Z,22.19
2018-12-04T15:36:51.082Z,22.17
2018-12-04T15:40:13.075Z,22.19
2018-12-04T15:43:35.024Z,22.25
2018-12-04T15:46:56.974Z,22.27
2018-12-04T15:50:19.021Z,22.28
2018-12-04T15:53:40.967Z,22.28
2018-12-04T15:57:02.981Z,22.3
2018-12-04T16:00:25.041Z,22.33
2018-12-04T16:03:46.973Z,22.33
2018-12-04T16:07:08.974Z,22.32
2018-12-04T16:10:30.936Z,22.31
2018-12-04T16:13:52.869Z,22.17
2018-12-04T16:17:14.853Z,22.07
2018-12-04T16:20:39.996Z,22.01
2018-12-04T16:23:58.977Z,21.97
2018-12-04T16:27:20.940Z,21.96
2018-12-04T16:30:42.881Z,22.01
2018-12-04T16:34:04.883Z,22.03
2018-12-04T16:37:26.947Z,22.04
2018-12-04T16:40:49.007Z,22.07
2018-12-04T16:44:10.940Z,22.09
2018-12-04T16:47:33.033Z,22.09
2018-12-04T16:50:54.959Z,22.09
2018-12-04T16:54:16.975Z,22.09
2018-12-04T16:57:39.066Z,22.08
2018-12-04T17:01:00.979Z,22.09
2018-12-04T17:04:23.070Z,22.11
2018-12-04T17:07:44.997Z,22.11
2018-12-04T17:11:07.384Z,22.11
2018-12-04T17:14:29.055Z,22.13
2018-12-04T17:17:50.976Z,22.13
2018-12-04T17:21:13.035Z,22.14
2018-12-04T17:24:34.979Z,22.13
2018-12-04T17:27:57.005Z,22.15
2018-12-04T17:31:20.983Z,22.22
2018-12-04T17:34:41.070Z,22.28
2018-12-04T17:38:03.073Z,22.22
2018-12-04T17:41:24.984Z,22.14
2018-12-04T17:44:47.050Z,22.09
2018-12-04T17:48:09.032Z,22.05
2018-12-04T17:51:30.949Z,22.02
2018-12-04T17:54:52.944Z,21.98
2018-12-04T17:58:14.939Z,21.94
2018-12-04T18:01:36.987Z,21.91
2018-12-04T18:04:58.901Z,21.9
2018-12-04T18:08:20.895Z,21.89
2018-12-04T18:11:42.870Z,21.91
2018-12-04T18:15:04.876Z,21.9
2018-12-04T18:18:26.987Z,21.87
2018-12-04T18:21:48.900Z,21.87
2018-12-04T18:25:10.991Z,21.91
2018-12-04T18:28:33.013Z,21.9
2018-12-04T18:31:54.957Z,21.89
2018-12-04T18:35:17.034Z,21.95
2018-12-04T18:38:38.958Z,22.08
2018-12-04T18:42:01.035Z,21.96
2018-12-04T18:45:22.977Z,21.87
2018-12-04T18:48:45.072Z,21.82
2018-12-04T18:52:06.990Z,21.81
2018-12-04T18:55:29.016Z,21.78
2018-12-04T18:58:51.076Z,21.75
2018-12-04T19:02:13.060Z,21.75
2018-12-04T19:05:34.979Z,21.73
2018-12-04T19:08:57.042Z,21.7
2018-12-04T19:12:18.950Z,21.69
2018-12-04T19:15:40.942Z,21.69
2018-12-04T19:19:02.991Z,21.68
2018-12-04T19:22:24.976Z,21.67
2018-12-04T19:25:46.988Z,21.66
2018-12-04T19:29:08.926Z,21.67
2018-12-04T19:32:30.953Z,21.66
2018-12-04T19:35:53.037Z,21.64
2018-12-04T19:39:15.051Z,21.62
2018-12-04T19:42:37.072Z,21.59
2018-12-04T19:46:01.509Z,21.62
2018-12-04T19:49:21.032Z,21.6
2018-12-04T19:52:43.099Z,21.59
2018-12-04T19:56:05.112Z,21.59
2018-12-04T19:59:27.046Z,21.57
2018-12-04T20:02:49.064Z,21.57
2018-12-04T20:06:11.132Z,21.57
2018-12-04T20:09:33.062Z,21.58
2018-12-04T20:12:55.153Z,21.55
2018-12-04T20:16:17.116Z,21.55
2018-12-04T20:19:39.205Z,21.55
2018-12-04T20:23:01.151Z,21.55
2018-12-04T20:26:23.221Z,21.55
2018-12-04T20:29:45.160Z,21.54
2018-12-04T20:33:07.184Z,21.51
2018-12-04T20:36:29.208Z,21.52
2018-12-04T20:39:51.210Z,21.5
2018-12-04T20:43:13.211Z,21.5
2018-12-04T20:46:35.267Z,21.5
2018-12-04T20:49:57.345Z,21.5
2018-12-04T20:53:19.269Z,21.48
2018-12-04T20:56:41.363Z,21.47
2018-12-04T21:00:03.365Z,21.47
2018-12-04T21:03:25.376Z,21.47
2018-12-04T21:06:47.402Z,21.47
2018-12-04T21:10:09.413Z,21.45
2018-12-04T21:13:31.479Z,21.44
2018-12-04T21:16:53.382Z,21.46
2018-12-04T21:20:15.496Z,21.45
2018-12-04T21:23:37.470Z,21.41
2018-12-04T21:26:59.581Z,21.43
2018-12-04T21:30:21.500Z,21.41
2018-12-04T21:33:43.553Z,21.42
2018-12-04T21:37:05.662Z,21.42
2018-12-04T21:40:27.613Z,21.41
2018-12-04T21:43:49.658Z,21.41
2018-12-04T21:47:11.724Z,21.41
2018-12-04T21:50:33.797Z,21.38
2018-12-04T21:53:55.913Z,21.4
2018-12-04T21:57:17.873Z,21.39
2018-12-04T22:00:39.939Z,21.38
2018-12-04T22:04:01.997Z,21.36
2018-12-04T22:07:24.127Z,21.38
2018-12-04T22:10:46.161Z,21.38
2018-12-04T22:14:08.229Z,21.36
2018-12-04T22:17:30.154Z,21.35
2018-12-04T22:20:52.317Z,21.36
2018-12-04T22:24:14.265Z,21.35
2018-12-04T22:27:36.284Z,21.34
2018-12-04T22:30:58.412Z,21.34
2018-12-04T22:34:20.386Z,21.35
2018-12-04T22:37:42.424Z,21.39
2018-12-04T22:41:04.542Z,21.4
2018-12-04T22:44:26.507Z,21.36
2018-12-04T22:47:48.633Z,21.31
2018-12-04T22:51:10.703Z,21.28
2018-12-04T22:54:32.693Z,21.27
2018-12-04T22:57:54.720Z,21.25
2018-12-04T23:01:16.708Z,21.25
2018-12-04T23:04:38.719Z,21.26
2018-12-04T23:08:00.769Z,21.24
2018-12-04T23:11:22.788Z,21.25
2018-12-04T23:14:44.893Z,21.26
2018-12-04T23:18:06.858Z,21.22
2018-12-04T23:21:28.955Z,21.23
2018-12-04T23:24:50.973Z,21.21
2018-12-04T23:28:13.024Z,21.23
2018-12-04T23:31:35.055Z,21.22
2018-12-04T23:34:57.015Z,21.17
2018-12-04T23:38:19.010Z,21.18
2018-12-04T23:41:41.040Z,21.17
2018-12-04T23:45:03.051Z,21.17
2018-12-04T23:48:25.052Z,21.17
2018-12-04T23:51:47.130Z,21.18
2018-12-04T23:55:09.102Z,21.18
2018-12-04T23:58:31.139Z,21.17
